Time;durP1;ratioP1;P1;durP2;ratioP2;P2;SDS_P1;SDS_P2;PMS_P1;PMS_P2;Temp;Humidity;BMP_temperature;BMP_pressure;BME280_temperature;BME280_humidity;BME280_pressure;Samples;Min_cycle;Max_cycle;Signal;HPM_P1;HPM_P2
2023/06/24 00:01:59;;;;;;;;;;;18.50;99.90;;;;;;5037149;28;19944;-66
2023/06/24 00:04:25;;;;;;;;;;;18.50;99.90;;;;;;5037406;28;19944;-95
2023/06/24 00:06:52;;;;;;;;;;;18.40;99.90;;;;;;5038187;28;19905;-66
2023/06/24 00:09:17;;;;;;;;;;;18.30;99.90;;;;;;5035915;28;20453;-66
2023/06/24 00:11:43;;;;;;;;;;;18.30;99.90;;;;;;5039067;28;19905;-66
2023/06/24 00:14:10;;;;;;;;;;;18.30;99.90;;;;;;5047458;28;20431;-66
2023/06/24 00:16:36;;;;;;;;;;;18.30;99.90;;;;;;5037663;28;19940;-66
2023/06/24 00:19:02;;;;;;;;;;;18.30;99.90;;;;;;5037817;28;19952;-66
2023/06/24 00:21:31;;;;;;;;;;;18.30;99.90;;;;;;5034582;28;19909;-92
2023/06/24 00:24:02;;;;;;;;;;;18.30;99.90;;;;;;5036949;28;19916;-66
2023/06/24 00:26:28;;;;;;;;;;;18.30;99.90;;;;;;5039106;28;20263;-66
2023/06/24 00:28:53;;;;;;;;;;;18.20;99.90;;;;;;5037538;28;19916;-66
2023/06/24 00:31:19;;;;;;;;;;;18.20;99.90;;;;;;5041581;28;19905;-96
2023/06/24 00:33:45;;;;;;;;;;;18.10;99.90;;;;;;5035392;28;19905;-66
2023/06/24 00:36:11;;;;;;;;;;;18.10;99.90;;;;;;5036362;28;19916;-66
2023/06/24 00:38:39;;;;;;;;;;;18.10;99.90;;;;;;5036592;28;19909;-93
2023/06/24 00:41:05;;;;;;;;;;;18.10;99.90;;;;;;5044178;28;19913;-66
2023/06/24 00:43:31;;;;;;;;;;;18.10;99.90;;;;;;5037429;28;20324;-66
2023/06/24 00:45:57;;;;;;;;;;;18.20;99.90;;;;;;5038026;28;19962;-66
2023/06/24 00:48:24;;;;;;;;;;;18.20;99.90;;;;;;5037974;28;19905;-66
2023/06/24 00:50:50;;;;;;;;;;;18.20;99.90;;;;;;5038826;28;19916;-66
2023/06/24 00:53:16;;;;;;;;;;;18.20;99.90;;;;;;5050856;28;19913;-66
2023/06/24 00:55:42;;;;;;;;;;;18.20;99.90;;;;;;5034159;28;19909;-66
2023/06/24 00:58:08;;;;;;;;;;;18.20;99.90;;;;;;5040042;28;19905;-66
2023/06/24 01:00:34;;;;;;;;;;;18.20;99.90;;;;;;5033987;28;19921;-66
2023/06/24 01:02:59;;;;;;;;;;;18.20;99.90;;;;;;5034770;28;19905;-66
2023/06/24 01:05:28;;;;;;;;;;;18.20;99.90;;;;;;5035144;28;20415;-66
2023/06/24 01:07:55;;;;;;;;;;;18.20;99.90;;;;;;5034321;28;19978;-66
2023/06/24 01:10:22;;;;;;;;;;;18.10;99.90;;;;;;5037730;28;19970;-66
2023/06/24 01:12:47;;;;;;;;;;;18.10;99.90;;;;;;5038803;28;19905;-93
2023/06/24 01:15:13;;;;;;;;;;;18.20;99.90;;;;;;5038539;28;19912;-66
2023/06/24 01:17:49;;;;;;;;;;;18.20;99.90;;;;;;5038273;28;20350;-66
2023/06/24 01:20:29;;;;;;;;;;;18.10;99.90;;;;;;5034967;28;20002;-66
2023/06/24 01:23:10;;;;;;;;;;;18.10;99.90;;;;;;5038523;28;19935;-66
2023/06/24 01:26:02;;;;;;;;;;;18.10;99.90;;;;;;5038175;28;20300;-66
2023/06/24 01:28:48;;;;;;;;;;;18.00;99.90;;;;;;5020060;28;20300;-66
2023/06/24 01:31:17;;;;;;;;;;;18.00;99.90;;;;;;5033714;28;19916;-66
2023/06/24 01:34:02;;;;;;;;;;;18.00;99.90;;;;;;5038393;28;19940;-66
2023/06/24 01:36:29;;;;;;;;;;;18.00;99.90;;;;;;5038337;28;19913;-66
2023/06/24 01:38:58;;;;;;;;;;;18.00;99.90;;;;;;5036854;28;20371;-66
2023/06/24 01:41:24;;;;;;;;;;;17.90;99.90;;;;;;5037516;28;19909;-66
2023/06/24 01:43:54;;;;;;;;;;;17.90;99.90;;;;;;5037542;28;19905;-66
2023/06/24 01:46:22;;;;;;;;;;;17.80;99.90;;;;;;5037556;28;19906;-66
2023/06/24 01:48:48;;;;;;;;;;;17.80;99.90;;;;;;5036589;28;19913;-66
2023/06/24 01:51:16;;;;;;;;;;;17.70;99.90;;;;;;5038522;28;19909;-66
2023/06/24 01:53:44;;;;;;;;;;;17.70;99.90;;;;;;5037910;28;19912;-66
2023/06/24 01:56:12;;;;;;;;;;;17.70;99.90;;;;;;5037892;28;20197;-66
2023/06/24 01:58:38;;;;;;;;;;;17.50;99.90;;;;;;5036460;28;19956;-91
2023/06/24 02:01:04;;;;;;;;;;;17.50;99.90;;;;;;5037161;28;20227;-66
2023/06/24 02:03:32;;;;;;;;;;;17.40;99.90;;;;;;5037460;28;19912;-92
2023/06/24 02:05:58;;;;;;;;;;;17.30;99.90;;;;;;5036445;28;19932;-66
2023/06/24 02:08:24;;;;;;;;;;;17.30;99.90;;;;;;5035783;28;19909;-67
2023/06/24 02:10:51;;;;;;;;;;;17.20;99.90;;;;;;5036628;28;19909;-66
2023/06/24 02:13:17;;;;;;;;;;;17.30;99.90;;;;;;5036425;28;19913;-66
2023/06/24 02:15:44;;;;;;;;;;;17.30;99.90;;;;;;5039355;28;19905;-66
2023/06/24 02:18:10;;;;;;;;;;;17.30;99.90;;;;;;5036595;28;20278;-66
2023/06/24 02:20:36;;;;;;;;;;;17.20;99.90;;;;;;5036219;28;20364;-67
2023/06/24 02:23:02;;;;;;;;;;;17.20;99.90;;;;;;5036063;28;19920;-66
2023/06/24 02:25:27;;;;;;;;;;;17.20;99.90;;;;;;5036886;28;19905;-66
2023/06/24 02:27:54;;;;;;;;;;;17.20;99.90;;;;;;5037699;28;19959;-66
2023/06/24 02:30:21;;;;;;;;;;;17.20;99.90;;;;;;5038993;28;19905;-66
2023/06/24 02:32:46;;;;;;;;;;;17.10;99.90;;;;;;5045350;28;19909;-66
2023/06/24 02:35:12;;;;;;;;;;;17.10;99.90;;;;;;5050737;28;19911;-66
2023/06/24 02:37:38;;;;;;;;;;;17.10;99.90;;;;;;5037156;28;19909;-91
2023/06/24 02:40:05;;;;;;;;;;;17.00;99.90;;;;;;5036997;28;20292;-66
2023/06/24 02:42:30;;;;;;;;;;;17.10;99.90;;;;;;5034833;28;19961;-66
2023/06/24 02:44:56;;;;;;;;;;;17.00;99.90;;;;;;5037101;28;19953;-66
2023/06/24 02:47:23;;;;;;;;;;;17.00;99.90;;;;;;5036454;28;19905;-66
2023/06/24 02:49:49;;;;;;;;;;;17.00;99.90;;;;;;5036545;28;19909;-66
2023/06/24 02:52:15;;;;;;;;;;;16.90;99.90;;;;;;5036339;28;20185;-66
2023/06/24 02:54:41;;;;;;;;;;;16.90;99.90;;;;;;5036583;28;20300;-91
2023/06/24 02:57:08;;;;;;;;;;;16.90;99.90;;;;;;5036881;28;19912;-66
2023/06/24 02:59:33;;;;;;;;;;;16.90;99.90;;;;;;5036376;28;19917;-66
2023/06/24 03:01:59;;;;;;;;;;;16.90;99.90;;;;;;5037002;28;19950;-66
2023/06/24 03:04:26;;;;;;;;;;;16.90;99.90;;;;;;5035696;28;19909;-66
2023/06/24 03:06:52;;;;;;;;;;;16.90;99.90;;;;;;5036533;28;19916;-66
2023/06/24 03:09:18;;;;;;;;;;;16.90;99.90;;;;;;5036083;28;20620;-66
2023/06/24 03:11:44;;;;;;;;;;;16.90;99.90;;;;;;5035266;28;19909;-82
2023/06/24 03:14:10;;;;;;;;;;;16.90;99.90;;;;;;5036008;28;19909;-66
2023/06/24 03:16:37;;;;;;;;;;;17.00;99.90;;;;;;5036077;28;19913;-66
2023/06/24 03:19:03;;;;;;;;;;;17.10;99.90;;;;;;5035674;28;19913;-65
2023/06/24 03:21:29;;;;;;;;;;;17.10;99.90;;;;;;5037446;28;19959;-67
2023/06/24 03:23:55;;;;;;;;;;;17.10;99.90;;;;;;5048139;28;19909;-66
2023/06/24 03:26:21;;;;;;;;;;;17.20;99.90;;;;;;5040609;28;20007;-66
2023/06/24 03:28:46;;;;;;;;;;;17.10;99.90;;;;;;5035704;28;20323;-66
2023/06/24 03:31:15;;;;;;;;;;;17.10;99.90;;;;;;5034809;28;19912;-66
2023/06/24 03:33:44;;;;;;;;;;;17.10;99.90;;;;;;5035378;28;19963;-66
2023/06/24 03:36:10;;;;;;;;;;;17.10;99.90;;;;;;5035753;28;19916;-66
2023/06/24 03:38:35;;;;;;;;;;;17.10;99.90;;;;;;5036087;28;19912;-67
2023/06/24 03:41:01;;;;;;;;;;;17.10;99.90;;;;;;5035879;28;19958;-66
2023/06/24 03:43:27;;;;;;;;;;;17.10;99.90;;;;;;5034800;28;20288;-66
2023/06/24 03:45:52;;;;;;;;;;;17.10;99.90;;;;;;5034532;28;20250;-66
2023/06/24 03:48:18;;;;;;;;;;;17.10;99.90;;;;;;5035693;28;19905;-67
2023/06/24 03:50:43;;;;;;;;;;;17.10;99.90;;;;;;5035346;28;19908;-66
2023/06/24 03:53:09;;;;;;;;;;;17.20;99.90;;;;;;5018258;28;19912;-66
2023/06/24 03:55:35;;;;;;;;;;;17.20;99.90;;;;;;5033372;28;19916;-66
2023/06/24 03:58:00;;;;;;;;;;;17.30;99.90;;;;;;5035711;28;19917;-66
2023/06/24 04:00:26;;;;;;;;;;;17.30;99.90;;;;;;5035110;28;19916;-66
2023/06/24 04:02:54;;;;;;;;;;;17.30;99.90;;;;;;5035673;28;20267;-66
2023/06/24 04:05:21;;;;;;;;;;;17.30;99.90;;;;;;5035477;28;19940;-66
2023/06/24 04:07:47;;;;;;;;;;;17.40;99.90;;;;;;5034775;28;19915;-66
2023/06/24 04:10:13;;;;;;;;;;;17.40;99.90;;;;;;5035358;28;19905;-66
2023/06/24 04:12:38;;;;;;;;;;;17.40;99.90;;;;;;5034901;28;19917;-91
2023/06/24 04:15:05;;;;;;;;;;;17.50;99.90;;;;;;5034937;28;19948;-66
2023/06/24 04:17:30;;;;;;;;;;;17.60;99.90;;;;;;5034738;28;19956;-66
2023/06/24 04:19:56;;;;;;;;;;;17.60;99.90;;;;;;5034597;28;19916;-66
2023/06/24 04:22:22;;;;;;;;;;;17.70;99.90;;;;;;5044133;28;19909;-78
2023/06/24 04:24:47;;;;;;;;;;;17.70;99.90;;;;;;5039109;28;19938;-66
2023/06/24 04:27:13;;;;;;;;;;;17.80;99.90;;;;;;5035107;28;19928;-66
2023/06/24 04:29:38;;;;;;;;;;;17.90;99.90;;;;;;5035282;28;19966;-66
2023/06/24 04:32:04;;;;;;;;;;;17.90;99.90;;;;;;5016832;28;20216;-66
2023/06/24 04:34:30;;;;;;;;;;;17.90;99.90;;;;;;5035496;28;20300;-66
2023/06/24 04:36:55;;;;;;;;;;;17.90;99.90;;;;;;5034319;28;20060;-90
2023/06/24 04:39:21;;;;;;;;;;;17.90;99.90;;;;;;5033378;28;19916;-90
2023/06/24 04:41:47;;;;;;;;;;;17.80;99.90;;;;;;5034308;28;19913;-66
2023/06/24 04:44:13;;;;;;;;;;;17.80;99.90;;;;;;5037249;28;19905;-66
2023/06/24 04:46:40;;;;;;;;;;;17.90;99.90;;;;;;5020907;28;19913;-66
2023/06/24 04:49:06;;;;;;;;;;;17.90;99.90;;;;;;5039262;28;19932;-66
2023/06/24 04:51:32;;;;;;;;;;;17.90;99.90;;;;;;5038933;28;20496;-66
2023/06/24 04:53:57;;;;;;;;;;;17.90;99.90;;;;;;5038009;28;20308;-66
2023/06/24 04:56:23;;;;;;;;;;;17.90;99.90;;;;;;5038652;28;20210;-67
2023/06/24 04:58:48;;;;;;;;;;;17.90;99.90;;;;;;5036630;28;19921;-66
2023/06/24 05:01:14;;;;;;;;;;;17.90;99.90;;;;;;5045702;28;20302;-66
2023/06/24 05:03:40;;;;;;;;;;;17.90;99.90;;;;;;5040010;28;19908;-66
2023/06/24 05:06:05;;;;;;;;;;;17.90;99.90;;;;;;5042199;28;19992;-66
2023/06/24 05:08:31;;;;;;;;;;;18.00;99.90;;;;;;5044011;28;20023;-66
2023/06/24 05:10:57;;;;;;;;;;;18.10;99.90;;;;;;5020614;28;19917;-66
2023/06/24 05:13:23;;;;;;;;;;;18.20;99.90;;;;;;5041610;28;20257;-68
2023/06/24 05:15:48;;;;;;;;;;;18.20;99.90;;;;;;5040589;28;20279;-66
2023/06/24 05:18:14;;;;;;;;;;;18.30;99.90;;;;;;5045261;28;20003;-66
2023/06/24 05:20:40;;;;;;;;;;;18.30;99.90;;;;;;5040443;28;19916;-66
2023/06/24 05:23:05;;;;;;;;;;;18.30;99.90;;;;;;5041066;28;19925;-91
2023/06/24 05:25:32;;;;;;;;;;;18.40;99.90;;;;;;5040473;28;19909;-66
2023/06/24 05:27:57;;;;;;;;;;;18.40;99.90;;;;;;5037323;28;19909;-66
2023/06/24 05:30:23;;;;;;;;;;;18.40;99.90;;;;;;5037652;28;19905;-66
2023/06/24 05:32:49;;;;;;;;;;;18.50;99.90;;;;;;5038116;28;19964;-66
2023/06/24 05:35:14;;;;;;;;;;;18.50;99.90;;;;;;5036686;28;19913;-66
2023/06/24 05:37:40;;;;;;;;;;;18.50;99.90;;;;;;5037883;28;20363;-66
2023/06/24 05:40:06;;;;;;;;;;;18.60;99.90;;;;;;5037307;28;20296;-66
2023/06/24 05:42:32;;;;;;;;;;;18.60;99.90;;;;;;5038482;28;19908;-73
2023/06/24 05:44:57;;;;;;;;;;;18.60;99.90;;;;;;5037273;28;20239;-66
2023/06/24 05:47:23;;;;;;;;;;;18.60;99.90;;;;;;5037786;28;19905;-66
2023/06/24 05:49:48;;;;;;;;;;;18.60;99.90;;;;;;5034953;28;19966;-93
2023/06/24 05:52:14;;;;;;;;;;;18.70;99.90;;;;;;5037802;28;19913;-66
2023/06/24 05:54:39;;;;;;;;;;;18.70;99.90;;;;;;5037193;28;19916;-66
2023/06/24 05:57:06;;;;;;;;;;;18.70;99.90;;;;;;5019762;28;19909;-67
2023/06/24 05:59:32;;;;;;;;;;;18.70;99.90;;;;;;5034030;28;19925;-90
2023/06/24 06:01:57;;;;;;;;;;;18.90;99.90;;;;;;5037006;28;19909;-67
2023/06/24 06:04:23;;;;;;;;;;;19.00;99.90;;;;;;5037491;28;19905;-67
2023/06/24 06:06:48;;;;;;;;;;;19.10;99.90;;;;;;5037273;28;20266;-67
2023/06/24 06:09:14;;;;;;;;;;;19.10;99.90;;;;;;5037133;28;19948;-67
2023/06/24 06:11:40;;;;;;;;;;;19.10;99.90;;;;;;5037370;28;19909;-67
2023/06/24 06:14:05;;;;;;;;;;;19.10;99.90;;;;;;5037138;28;19916;-66
2023/06/24 06:16:31;;;;;;;;;;;19.10;99.90;;;;;;5032585;28;19917;-67
2023/06/24 06:18:56;;;;;;;;;;;19.10;99.90;;;;;;5025667;28;19909;-67
2023/06/24 06:21:22;;;;;;;;;;;19.20;99.90;;;;;;5036800;28;19905;-67
2023/06/24 06:23:47;;;;;;;;;;;19.20;99.90;;;;;;5037472;28;19912;-67
2023/06/24 06:26:13;;;;;;;;;;;19.30;99.90;;;;;;5037161;28;19905;-67
2023/06/24 06:28:38;;;;;;;;;;;19.30;99.90;;;;;;5037404;28;19919;-66
2023/06/24 06:31:04;;;;;;;;;;;19.40;99.90;;;;;;5037200;28;19912;-66
2023/06/24 06:33:30;;;;;;;;;;;19.40;99.90;;;;;;5036690;28;19921;-84
2023/06/24 06:35:56;;;;;;;;;;;19.50;99.90;;;;;;5037227;28;19947;-67
2023/06/24 06:38:21;;;;;;;;;;;19.60;99.90;;;;;;5035521;28;19920;-67
2023/06/24 06:40:47;;;;;;;;;;;19.60;99.90;;;;;;5030832;28;19913;-67
2023/06/24 06:43:12;;;;;;;;;;;19.70;99.90;;;;;;5035002;28;19916;-67
2023/06/24 06:45:38;;;;;;;;;;;19.70;99.90;;;;;;5036108;28;20292;-68
2023/06/24 06:48:08;;;;;;;;;;;19.80;99.90;;;;;;5036531;28;19955;-67
2023/06/24 06:50:34;;;;;;;;;;;19.80;99.90;;;;;;5036810;28;19909;-67
2023/06/24 06:52:59;;;;;;;;;;;19.90;99.90;;;;;;5036485;28;20001;-67
2023/06/24 06:55:25;;;;;;;;;;;19.90;99.90;;;;;;5036842;28;20635;-66
2023/06/24 06:57:51;;;;;;;;;;;20.00;99.90;;;;;;5036519;28;19909;-91
2023/06/24 07:00:17;;;;;;;;;;;20.10;99.90;;;;;;5040497;28;20200;-89
2023/06/24 07:02:42;;;;;;;;;;;20.20;99.90;;;;;;5033104;28;20448;-67
2023/06/24 07:05:09;;;;;;;;;;;20.20;99.90;;;;;;5031218;28;19905;-67
2023/06/24 07:07:37;;;;;;;;;;;20.40;99.90;;;;;;5032324;28;19913;-67
2023/06/24 07:10:02;;;;;;;;;;;20.40;99.90;;;;;;5037285;28;19920;-67
2023/06/24 07:12:28;;;;;;;;;;;20.50;99.90;;;;;;5035844;28;19905;-67
2023/06/24 07:14:54;;;;;;;;;;;20.50;99.90;;;;;;5036360;28;19955;-67
2023/06/24 07:17:19;;;;;;;;;;;20.60;99.90;;;;;;5036173;28;20296;-91
2023/06/24 07:19:45;;;;;;;;;;;20.70;99.90;;;;;;5035507;28;19920;-67
2023/06/24 07:22:11;;;;;;;;;;;20.80;99.90;;;;;;5030987;28;19909;-67
2023/06/24 07:24:36;;;;;;;;;;;20.80;99.90;;;;;;5036074;28;19912;-67
2023/06/24 07:27:02;;;;;;;;;;;20.90;99.90;;;;;;5035663;28;19905;-71
2023/06/24 07:29:28;;;;;;;;;;;21.00;99.90;;;;;;5035806;28;19912;-86
2023/06/24 07:31:53;;;;;;;;;;;21.10;99.90;;;;;;5035558;28;19979;-66
2023/06/24 07:34:19;;;;;;;;;;;21.20;99.90;;;;;;5025761;28;19905;-66
2023/06/24 07:36:45;;;;;;;;;;;21.30;99.90;;;;;;5033636;28;20594;-67
2023/06/24 07:39:10;;;;;;;;;;;21.40;99.90;;;;;;5035872;28;19909;-67
2023/06/24 07:41:36;;;;;;;;;;;21.50;99.90;;;;;;5035398;28;19936;-67
2023/06/24 07:44:02;;;;;;;;;;;21.70;99.90;;;;;;5035759;28;19909;-67
2023/06/24 07:46:28;;;;;;;;;;;21.80;99.90;;;;;;5035987;28;19992;-67
2023/06/24 07:48:54;;;;;;;;;;;21.90;99.90;;;;;;5037983;28;19924;-66
2023/06/24 07:51:19;;;;;;;;;;;21.90;99.90;;;;;;5036374;28;19954;-67
2023/06/24 07:53:45;;;;;;;;;;;22.10;99.90;;;;;;5024920;28;19912;-68
2023/06/24 07:56:11;;;;;;;;;;;22.30;99.90;;;;;;5035601;28;20185;-67
2023/06/24 07:58:38;;;;;;;;;;;22.50;99.90;;;;;;5034601;28;19920;-67
2023/06/24 08:01:04;;;;;;;;;;;22.60;99.90;;;;;;5035080;28;19920;-67
2023/06/24 08:03:29;;;;;;;;;;;22.80;99.90;;;;;;5034465;28;20308;-70
2023/06/24 08:05:56;;;;;;;;;;;22.90;99.90;;;;;;5034918;28;19905;-68
2023/06/24 08:08:22;;;;;;;;;;;23.00;99.90;;;;;;5034873;28;19909;-67
2023/06/24 08:10:47;;;;;;;;;;;23.20;99.90;;;;;;5034259;28;19909;-88
2023/06/24 08:13:13;;;;;;;;;;;23.40;99.90;;;;;;5032493;28;19920;-67
2023/06/24 08:15:39;;;;;;;;;;;23.60;99.90;;;;;;5016873;28;19928;-67
2023/06/24 08:18:04;;;;;;;;;;;23.70;99.90;;;;;;5029090;28;19913;-67
2023/06/24 08:20:30;;;;;;;;;;;23.90;99.90;;;;;;5034087;28;19924;-87
2023/06/24 08:22:56;;;;;;;;;;;24.10;99.90;;;;;;5034697;28;19995;-66
2023/06/24 08:25:21;;;;;;;;;;;24.20;99.90;;;;;;5034903;28;19924;-68
2023/06/24 08:27:47;;;;;;;;;;;24.40;99.90;;;;;;5035279;28;19905;-68
2023/06/24 08:30:14;;;;;;;;;;;24.40;99.90;;;;;;5034041;28;19920;-68
2023/06/24 08:32:40;;;;;;;;;;;24.50;99.90;;;;;;5035353;28;20284;-92
2023/06/24 08:35:07;;;;;;;;;;;24.60;99.90;;;;;;5034884;28;19909;-68
2023/06/24 08:37:32;;;;;;;;;;;24.70;99.90;;;;;;5035095;28;20371;-68
2023/06/24 08:39:58;;;;;;;;;;;24.90;99.90;;;;;;5034809;28;20011;-68
2023/06/24 08:42:24;;;;;;;;;;;25.00;99.90;;;;;;5034299;28;19909;-67
2023/06/24 08:44:49;;;;;;;;;;;25.10;99.90;;;;;;5035392;28;19909;-68
2023/06/24 08:47:16;;;;;;;;;;;25.30;99.90;;;;;;5034447;28;19917;-67
2023/06/24 08:49:47;;;;;;;;;;;25.40;99.90;;;;;;5035059;28;19995;-67
2023/06/24 08:52:14;;;;;;;;;;;25.60;99.90;;;;;;5033758;28;19989;-67
2023/06/24 08:54:40;;;;;;;;;;;25.70;99.90;;;;;;5035002;28;19916;-68
2023/06/24 08:57:07;;;;;;;;;;;25.90;99.90;;;;;;5036716;28;20299;-89
2023/06/24 08:59:33;;;;;;;;;;;26.00;99.90;;;;;;5035430;28;19971;-82
2023/06/24 09:01:59;;;;;;;;;;;26.00;99.90;;;;;;5035181;28;19909;-90
2023/06/24 09:04:24;;;;;;;;;;;26.10;99.90;;;;;;5034907;28;19912;-89
2023/06/24 09:06:50;;;;;;;;;;;26.00;99.90;;;;;;5036169;28;19913;-89
2023/06/24 09:09:19;;;;;;;;;;;26.10;99.90;;;;;;5037311;28;19912;-84
2023/06/24 09:11:55;;;;;;;;;;;26.20;99.90;;;;;;5043178;28;20219;-76
2023/06/24 09:14:20;;;;;;;;;;;26.20;99.90;;;;;;5034801;28;19916;-88
2023/06/24 09:16:53;;;;;;;;;;;26.40;99.90;;;;;;5034734;28;19983;-68
2023/06/24 09:19:36;;;;;;;;;;;26.40;99.90;;;;;;5016392;28;19920;-69
2023/06/24 09:22:05;;;;;;;;;;;26.40;99.90;;;;;;5041279;28;19974;-79
2023/06/24 09:24:32;;;;;;;;;;;26.50;99.90;;;;;;5041035;28;19948;-70
2023/06/24 09:26:58;;;;;;;;;;;26.60;99.90;;;;;;5034703;28;19905;-83
2023/06/24 09:29:32;;;;;;;;;;;26.60;99.90;;;;;;5034436;28;19955;-69
2023/06/24 09:31:59;;;;;;;;;;;26.60;99.90;;;;;;5038328;28;19909;-85
2023/06/24 09:34:26;;;;;;;;;;;26.70;99.90;;;;;;5012292;28;20228;-69
2023/06/24 09:36:56;;;;;;;;;;;26.80;99.90;;;;;;5047538;28;20379;-72
2023/06/24 09:39:27;;;;;;;;;;;26.90;99.90;;;;;;5037146;28;20015;-85
2023/06/24 09:41:53;;;;;;;;;;;27.00;99.90;;;;;;5020301;28;19960;-69
2023/06/24 09:44:19;;;;;;;;;;;27.00;99.90;;;;;;5038519;28;19936;-89
2023/06/24 09:46:45;;;;;;;;;;;27.10;99.90;;;;;;5035042;28;19915;-69
2023/06/24 09:49:11;;;;;;;;;;;27.20;99.90;;;;;;5038558;28;20342;-69
2023/06/24 09:51:42;;;;;;;;;;;27.30;99.90;;;;;;5036437;28;19917;-68
2023/06/24 09:54:09;;;;;;;;;;;27.30;99.90;;;;;;5034995;28;19916;-68
2023/06/24 09:56:39;;;;;;;;;;;27.40;99.90;;;;;;5037522;28;19909;-68
2023/06/24 09:59:06;;;;;;;;;;;27.40;99.90;;;;;;5037261;28;19921;-86
2023/06/24 10:01:43;;;;;;;;;;;27.50;99.90;;;;;;5037634;28;19905;-68
2023/06/24 10:04:09;;;;;;;;;;;27.60;99.90;;;;;;5036555;28;20227;-68
2023/06/24 10:06:35;;;;;;;;;;;27.60;99.90;;;;;;5019327;28;19913;-68
2023/06/24 10:09:01;;;;;;;;;;;27.60;99.90;;;;;;5037497;28;19959;-68
2023/06/24 10:11:27;;;;;;;;;;;27.60;99.90;;;;;;5037024;28;19916;-69
2023/06/24 10:13:53;;;;;;;;;;;27.70;99.90;;;;;;5039445;28;19905;-68
2023/06/24 10:16:18;;;;;;;;;;;27.60;99.90;;;;;;5040955;28;20323;-68
2023/06/24 10:18:45;;;;;;;;;;;27.70;99.90;;;;;;5041588;28;20312;-68
2023/06/24 10:21:10;;;;;;;;;;;27.80;99.90;;;;;;5041209;28;19916;-68
2023/06/24 10:23:43;;;;;;;;;;;27.90;99.90;;;;;;5036279;28;19909;-68
2023/06/24 10:26:29;;;;;;;;;;;28.00;99.90;;;;;;5040198;28;19912;-69
2023/06/24 10:29:06;;;;;;;;;;;28.00;99.90;;;;;;5036388;28;20004;-68
2023/06/24 10:31:42;;;;;;;;;;;28.10;99.90;;;;;;5036895;28;20342;-68
2023/06/24 10:34:28;;;;;;;;;;;28.20;99.90;;;;;;5039311;28;20126;-68
2023/06/24 10:36:55;;;;;;;;;;;28.30;99.90;;;;;;5037216;28;19917;-68
2023/06/24 10:39:37;;;;;;;;;;;28.40;99.90;;;;;;5034264;28;20331;-89
2023/06/24 10:42:23;;;;;;;;;;;28.40;99.90;;;;;;5043298;28;19916;-69
2023/06/24 10:44:49;;;;;;;;;;;28.40;99.90;;;;;;5018302;28;19909;-68
2023/06/24 10:47:15;;;;;;;;;;;28.50;99.90;;;;;;5036766;28;19909;-68
2023/06/24 10:49:40;;;;;;;;;;;28.60;99.90;;;;;;5036756;28;19966;-68
2023/06/24 10:52:12;;;;;;;;;;;28.60;99.90;;;;;;5036572;28;19913;-69
2023/06/24 10:54:38;;;;;;;;;;;28.70;99.90;;;;;;5036594;28;19944;-69
2023/06/24 10:57:04;;;;;;;;;;;28.80;99.90;;;;;;5036714;28;20322;-68
2023/06/24 10:59:41;;;;;;;;;;;28.90;99.90;;;;;;5036289;28;19924;-68
2023/06/24 11:02:09;;;;;;;;;;;28.90;99.90;;;;;;5036678;28;19912;-68
2023/06/24 11:04:55;;;;;;;;;;;29.00;99.90;;;;;;5032435;28;19955;-69
2023/06/24 11:07:21;;;;;;;;;;;29.10;99.90;;;;;;5032861;28;19921;-68
2023/06/24 11:09:51;;;;;;;;;;;29.20;99.90;;;;;;5036213;28;19916;-68
2023/06/24 11:12:17;;;;;;;;;;;29.30;99.90;;;;;;5036816;28;19905;-68
2023/06/24 11:14:43;;;;;;;;;;;29.50;99.90;;;;;;5036445;28;19955;-69
2023/06/24 11:17:08;;;;;;;;;;;29.60;99.90;;;;;;5016835;28;19912;-68
2023/06/24 11:19:38;;;;;;;;;;;29.50;99.90;;;;;;5018625;28;19909;-81
2023/06/24 11:22:04;;;;;;;;;;;29.50;99.90;;;;;;5035294;28;19909;-68
2023/06/24 11:24:30;;;;;;;;;;;29.70;99.90;;;;;;5036277;28;20219;-68
2023/06/24 11:26:55;;;;;;;;;;;29.60;99.90;;;;;;5035084;28;19979;-85
2023/06/24 11:29:21;;;;;;;;;;;29.70;99.90;;;;;;5036169;28;19912;-67
2023/06/24 11:31:47;;;;;;;;;;;29.70;99.90;;;;;;5035609;28;20300;-68
2023/06/24 11:34:12;;;;;;;;;;;29.60;99.90;;;;;;5036110;28;19912;-69
2023/06/24 11:36:38;;;;;;;;;;;29.40;99.90;;;;;;5035311;28;19909;-83
2023/06/24 11:39:03;;;;;;;;;;;29.40;99.90;;;;;;5036158;28;19928;-69
2023/06/24 11:41:29;;;;;;;;;;;29.30;99.90;;;;;;5035899;28;19908;-68
2023/06/24 11:43:57;;;;;;;;;;;29.40;99.90;;;;;;5035813;28;19911;-68
2023/06/24 11:46:26;;;;;;;;;;;29.50;99.90;;;;;;5035284;28;20308;-70
2023/06/24 11:48:53;;;;;;;;;;;29.60;99.90;;;;;;5035550;28;19909;-68
2023/06/24 11:51:19;;;;;;;;;;;29.70;99.90;;;;;;5035709;28;19912;-69
2023/06/24 11:53:48;;;;;;;;;;;29.70;99.90;;;;;;5034411;28;19908;-69
2023/06/24 11:56:13;;;;;;;;;;;29.60;99.90;;;;;;5036025;28;19942;-69
2023/06/24 11:58:39;;;;;;;;;;;29.50;99.90;;;;;;5034787;28;19917;-68
2023/06/24 12:01:08;;;;;;;;;;;29.50;99.90;;;;;;5035567;28;20323;-68
2023/06/24 12:03:34;;;;;;;;;;;29.60;99.90;;;;;;5035160;28;19909;-68
2023/06/24 12:06:00;;;;;;;;;;;29.60;99.90;;;;;;5034928;28;19908;-68
2023/06/24 12:08:26;;;;;;;;;;;29.70;99.90;;;;;;5034283;28;19920;-69
2023/06/24 12:10:51;;;;;;;;;;;29.70;99.90;;;;;;5017873;28;20211;-85
2023/06/24 12:13:17;;;;;;;;;;;29.60;99.90;;;;;;5034874;28;19999;-68
2023/06/24 12:15:42;;;;;;;;;;;29.50;99.90;;;;;;5035888;28;19908;-68
2023/06/24 12:18:08;;;;;;;;;;;29.60;99.90;;;;;;5035193;28;19913;-88
2023/06/24 12:20:36;;;;;;;;;;;29.70;99.90;;;;;;5035390;28;19909;-69
2023/06/24 12:23:02;;;;;;;;;;;29.80;99.90;;;;;;5003991;28;20439;-69
2023/06/24 12:25:27;;;;;;;;;;;29.90;99.90;;;;;;5035329;28;19912;-68
2023/06/24 12:27:53;;;;;;;;;;;30.00;99.90;;;;;;5034751;28;19948;-69
2023/06/24 12:30:20;;;;;;;;;;;30.00;99.90;;;;;;5039211;28;19912;-69
2023/06/24 12:32:45;;;;;;;;;;;30.00;99.90;;;;;;5037010;28;20334;-68
2023/06/24 12:35:12;;;;;;;;;;;29.80;99.90;;;;;;5034812;28;19909;-68
2023/06/24 12:37:38;;;;;;;;;;;29.80;99.90;;;;;;5034775;28;19909;-69
2023/06/24 12:40:04;;;;;;;;;;;29.90;99.90;;;;;;5037824;28;20020;-68
2023/06/24 12:42:30;;;;;;;;;;;29.90;99.90;;;;;;5041509;28;19915;-68
2023/06/24 12:44:55;;;;;;;;;;;30.00;99.90;;;;;;5037136;28;20281;-66
2023/06/24 12:47:21;;;;;;;;;;;30.10;99.90;;;;;;5046710;28;19959;-66
2023/06/24 12:49:47;;;;;;;;;;;30.00;99.90;;;;;;5034184;28;19937;-66
2023/06/24 12:52:13;;;;;;;;;;;29.80;99.90;;;;;;5033370;28;19909;-66
2023/06/24 12:54:39;;;;;;;;;;;29.70;99.90;;;;;;5035011;28;20247;-66
2023/06/24 12:57:04;;;;;;;;;;;29.40;99.90;;;;;;5034514;28;19905;-66
2023/06/24 12:59:30;;;;;;;;;;;29.20;99.90;;;;;;5034108;28;19943;-66
2023/06/24 13:01:55;;;;;;;;;;;29.10;99.90;;;;;;5034654;28;19917;-66
2023/06/24 13:04:22;;;;;;;;;;;29.20;99.90;;;;;;5035502;28;19905;-66
2023/06/24 13:06:49;;;;;;;;;;;29.40;99.90;;;;;;5038413;28;19905;-65
2023/06/24 13:09:14;;;;;;;;;;;29.60;99.90;;;;;;5037901;28;19909;-66
2023/06/24 13:11:40;;;;;;;;;;;29.80;99.90;;;;;;5038099;28;20227;-83
2023/06/24 13:14:06;;;;;;;;;;;30.00;99.90;;;;;;5038516;28;19960;-66
2023/06/24 13:16:32;;;;;;;;;;;30.00;99.90;;;;;;5038543;28;19909;-79
2023/06/24 13:18:58;;;;;;;;;;;30.10;99.90;;;;;;5038349;28;19913;-66
2023/06/24 13:21:23;;;;;;;;;;;30.20;99.90;;;;;;5037396;28;19928;-66
2023/06/24 13:23:49;;;;;;;;;;;30.20;99.90;;;;;;5038859;28;19989;-66
2023/06/24 13:26:14;;;;;;;;;;;30.20;99.90;;;;;;5020992;28;19947;-66
2023/06/24 13:28:40;;;;;;;;;;;30.30;99.90;;;;;;5038112;28;19909;-85
2023/06/24 13:31:06;;;;;;;;;;;30.20;99.90;;;;;;5038168;28;19905;-66
2023/06/24 13:33:31;;;;;;;;;;;30.20;99.90;;;;;;5036941;28;19909;-87
2023/06/24 13:35:57;;;;;;;;;;;30.30;99.90;;;;;;5038364;28;19995;-66
2023/06/24 13:38:22;;;;;;;;;;;30.40;99.90;;;;;;5038013;28;19916;-73
2023/06/24 13:40:48;;;;;;;;;;;30.30;99.90;;;;;;5038292;28;20003;-66
2023/06/24 13:43:13;;;;;;;;;;;30.30;99.90;;;;;;5037596;28;19955;-65
2023/06/24 13:45:39;;;;;;;;;;;30.10;99.90;;;;;;5038184;28;19908;-66
2023/06/24 13:48:04;;;;;;;;;;;30.00;99.90;;;;;;5037674;28;19916;-66
2023/06/24 13:50:30;;;;;;;;;;;29.90;99.90;;;;;;5038152;28;19970;-66
2023/06/24 13:52:56;;;;;;;;;;;29.70;99.90;;;;;;5037507;28;19909;-66
2023/06/24 13:55:21;;;;;;;;;;;29.50;99.90;;;;;;5037728;28;19913;-87
2023/06/24 13:57:47;;;;;;;;;;;29.40;99.90;;;;;;5035662;28;19909;-66
2023/06/24 14:00:13;;;;;;;;;;;29.30;99.90;;;;;;5037160;28;19924;-66
2023/06/24 14:02:39;;;;;;;;;;;29.20;99.90;;;;;;5037426;28;19905;-66
2023/06/24 14:05:05;;;;;;;;;;;28.90;99.90;;;;;;5037492;28;19931;-67
2023/06/24 14:07:31;;;;;;;;;;;28.80;99.90;;;;;;5051531;28;20295;-88
2023/06/24 14:09:56;;;;;;;;;;;28.70;99.90;;;;;;5037343;28;19909;-65
2023/06/24 14:12:22;;;;;;;;;;;28.60;99.90;;;;;;5037381;28;19963;-84
2023/06/24 14:14:47;;;;;;;;;;;28.50;99.90;;;;;;5037190;28;19944;-66